Latest Weather Observations for Sydney Airport

IDN60801

Issued at 9:32 pm EST Sunday 1 May 2016 (issued every 30 minutes, with the page automatically refreshed every 10 minutes)

About weather observations | Map of weather stations | Latest weather observations for NSW | Other Formats
Station Details ID: 066037 Name: SYDNEY AIRPORT AMO Lat: -33.95 Lon: 151.17 Height: 6.0 m
Data from the previous 72 hours. | See also: Recent months at Sydney Airport
Date/Time
EST
Temp
°C
App
Temp
°C
Dew
Point
Rel
Hum
%
Delta-T
°C
Wind Press
QNH
hPa
Press
MSL
hPa
Rain
since 9 am
mm
Dir
 
Spd
km/h
Gust
km/h
Spd
kts
Gust
kts
01/09:00pm 20.3 15.7 6.3 40 7.0 WSW 20 26 11 14 1014.2 1014.2 0.0
01/08:30pm 20.8 16.3 7.1 41 7.0 WSW 20 26 11 14 1013.7 1013.7 0.0
01/08:00pm 21.9 17.8 6.3 36 7.9 WSW 17 20 9 11 1013.0 1013.0 0.0
01/07:30pm 22.5 17.8 6.1 34 8.3 W 20 28 11 15 1012.5 1012.5 0.0
01/07:00pm 23.1 17.7 6.2 33 8.6 W 24 33 13 18 1011.8 1011.8 0.0
01/06:30pm 24.5 19.7 5.6 29 9.6 WNW 20 28 11 15 1011.5 1011.5 0.0
01/06:00pm 25.5 21.3 5.6 28 10.2 WNW 17 20 9 11 1011.1 1011.1 0.0
01/05:30pm 26.2 19.6 4.0 24 11.1 WNW 28 39 15 21 1010.6 1010.6 0.0
01/05:04pm 27.0 19.5 4.5 23 11.4 WNW 33 52 18 28 1010.1 1010.1 0.0
01/05:00pm 26.9 18.6 4.3 23 11.4 WNW 37 52 20 28 1010.1 1010.1 0.0
01/04:31pm 27.9 20.1 6.5 25 11.3 NW 37 56 20 30 1009.6 1009.6 0.0
01/04:30pm 27.8 20.0 6.6 26 11.2 NW 37 52 20 28 1009.6 1009.6 0.0
01/04:00pm 27.3 23.8 13.4 42 8.2 NNW 24 35 13 19 1009.2 1009.2 0.0
01/03:30pm 27.0 23.4 15.3 48 7.1 N 28 41 15 22 1009.0 1009.0 0.0
01/03:00pm 27.0 23.0 15.1 48 7.2 N 30 35 16 19 1008.9 1008.9 0.0
01/02:30pm 26.3 21.7 15.0 49 6.8 N 33 41 18 22 1009.1 1009.1 0.0
01/02:00pm 26.7 22.2 14.9 48 7.1 NNW 32 41 17 22 1009.3 1009.3 0.0
01/01:30pm 26.2 21.6 15.1 50 6.7 NNW 33 43 18 23 1009.4 1009.4 0.0
01/01:00pm 25.1 20.8 15.5 55 5.8 N 32 39 17 21 1009.7 1009.7 0.0
01/12:30pm 23.5 19.8 15.9 62 4.6 N 30 37 16 20 1010.3 1010.3 0.0
01/12:00pm 23.1 19.9 16.2 65 4.2 NNW 28 35 15 19 1011.2 1011.2 0.0
01/11:30am 22.8 19.3 16.6 68 3.8 N 30 39 16 21 1012.0 1012.0 0.0
01/11:00am 22.0 18.6 16.8 72 3.2 N 30 37 16 20 1012.6 1012.6 0.0
01/10:30am 22.1 18.9 17.2 74 3.0 N 30 35 16 19 1012.8 1012.8 0.0
01/10:00am 21.3 19.3 17.4 78 2.4 N 24 32 13 17 1012.7 1012.7 0.0
01/09:30am 21.1 18.9 17.9 82 2.0 N 26 32 14 17 1013.0 1013.0 0.0
01/09:00am 19.8 16.8 17.7 88 1.3 N 30 37 16 20 1012.9 1012.9 2.0
01/08:30am 19.3 16.7 17.7 90 1.0 N 28 32 15 17 1013.5 1013.5 2.0
01/08:00am 19.1 17.2 17.6 91 0.9 N 24 28 13 15 1013.4 1013.4 1.8
01/07:30am 18.9 17.6 17.3 90 1.0 N 20 26 11 14 1014.0 1014.0 1.0
01/07:00am 18.3 16.8 16.8 91 0.9 N 20 26 11 14 1014.1 1014.1 0.2
01/06:30am 17.6 15.5 16.1 91 0.9 NW 22 32 12 17 1013.7 1013.7 0.0
01/06:00am 17.5 14.9 16.0 91 0.9 WNW 24 32 13 17 1013.0 1013.0 0.0
01/05:30am 17.5 17.0 15.8 90 1.0 WNW 13 24 7 13 1012.7 1012.7 0.0
01/05:00am 18.2 17.7 16.0 87 1.3 NW 13 13 7 7 1012.0 1012.0 0.0
01/04:30am 18.6 19.4 16.3 86 1.4 NW 7 9 4 5 1012.4 1012.4 0.0
01/04:00am 18.3 18.6 16.1 87 1.3 NNW 9 13 5 7 1012.7 1012.7 0.0
01/03:30am 18.0 17.9 16.1 89 1.1 NW 11 15 6 8 1012.9 1012.9 0.0
01/03:00am 18.6 18.5 16.1 85 1.5 NW 11 13 6 7 1012.9 1012.9 0.0
01/02:30am 18.4 18.3 16.0 86 1.4 NNW 11 11 6 6 1013.2 1013.2 0.0
01/02:00am 19.2 19.3 16.5 84 1.6 NW 11 13 6 7 1013.3 1013.3 0.0
01/01:30am 19.3 19.8 16.5 84 1.7 NNW 9 11 5 6 1014.0 1014.0 0.0
01/01:00am 19.3 20.4 16.6 84 1.6 NW 6 7 3 4 1014.0 1014.0 0.0
01/12:30am 19.4 20.0 16.9 85 1.5 WNW 9 11 5 6 1014.8 1014.8 0.0
01/12:00am 19.7 20.9 16.9 84 1.7 N 6 9 3 5 1014.8 1014.8 0.0
 
Date/Time
EST
Temp
°C
App
Temp
°C
Dew
Point
Rel
Hum
%
Delta-T
°C
Wind Press
QNH
hPa
Press
MSL
hPa
Rain
since 9 am
mm
Dir
 
Spd
km/h
Gust
km/h
Spd
kts
Gust
kts
30/11:30pm 20.6 20.9 17.0 80 2.2 NW 11 13 6 7 1015.4 1015.4 0.0
30/11:00pm 21.0 21.0 17.1 78 2.4 NW 13 22 7 12 1015.5 1015.5 0.0
30/10:30pm 21.2 21.5 17.1 77 2.5 NNW 11 17 6 9 1015.9 1015.9 0.0
30/10:00pm 21.6 22.0 17.2 76 2.7 NNW 11 13 6 7 1016.0 1016.0 0.0
30/09:30pm 21.8 22.3 17.4 76 2.7 NNW 11 17 6 9 1016.3 1016.3 0.0
30/09:00pm 22.1 22.2 17.4 74 2.9 N 13 17 7 9 1016.6 1016.6 0.0
30/08:30pm 22.1 21.5 17.6 75 2.8 N 17 19 9 10 1016.4 1016.4 0.0
30/08:00pm 22.4 22.5 17.5 74 3.0 N 13 15 7 8 1016.5 1016.5 0.0
30/07:30pm 22.8 22.8 17.3 71 3.4 N 13 15 7 8 1016.2 1016.2 0.0
30/07:00pm 23.3 23.3 17.3 69 3.7 N 13 15 7 8 1016.2 1016.2 0.0
30/06:30pm 23.8 23.8 17.2 66 4.1 NNE 13 15 7 8 1016.0 1016.0 0.0
30/06:00pm 24.6 23.9 16.4 60 5.0 NE 15 17 8 9 1015.8 1015.8 0.0
30/05:30pm 24.6 23.8 16.2 59 5.1 N 15 15 8 8 1015.6 1015.6 0.0
30/05:00pm 25.3 24.7 15.6 55 5.9 N 13 15 7 8 1015.5 1015.5 0.0
30/04:30pm 25.7 25.3 15.3 52 6.3 NNE 11 13 6 7 1015.5 1015.5 0.0
30/04:00pm 26.1 25.8 15.4 51 6.5 NNE 11 13 6 7 1015.4 1015.4 0.0
30/03:30pm 26.0 26.1 15.4 52 6.4 NNW 9 11 5 6 1015.5 1015.5 0.0
30/03:00pm 26.6 26.8 15.8 51 6.6 NNW 9 13 5 7 1015.5 1015.5 0.0
30/02:30pm 26.8 26.1 15.4 49 6.9 NW 13 19 7 10 1015.5 1015.5 0.0
30/02:00pm 25.7 24.2 15.3 52 6.3 NW 17 26 9 14 1015.6 1015.6 0.0
30/01:30pm 25.4 23.3 15.1 53 6.2 NNW 20 28 11 15 1015.6 1015.6 0.0
30/01:00pm 25.8 23.6 14.8 50 6.6 N 20 30 11 16 1015.7 1015.7 0.0
30/12:30pm 25.5 22.4 14.6 51 6.5 NNW 24 33 13 18 1016.1 1016.1 0.0
30/12:00pm 25.4 21.8 14.3 50 6.6 N 26 33 14 18 1016.7 1016.7 0.0
30/11:30am 24.6 21.9 14.7 54 5.9 N 22 28 12 15 1017.1 1017.1 0.0
30/11:00am 24.1 23.4 15.3 58 5.3 N 13 20 7 11 1017.6 1017.6 0.0
30/10:30am 22.8 23.3 16.6 68 3.8 NNW 9 15 5 8 1018.3 1018.3 0.0
30/10:00am 21.5 22.2 17.1 76 2.7 WNW 9 15 5 8 1018.5 1018.5 0.0
30/09:30am 21.5 22.0 16.5 73 3.0 NW 9 15 5 8 1018.5 1018.5 0.0
30/09:00am 21.3 21.3 16.3 73 3.0 N 11 13 6 7 1018.4 1018.4 0.0
30/08:30am 20.9 21.2 16.1 74 2.9 N 9 13 5 7 1018.7 1018.7 0.0
30/08:00am 20.5 20.5 16.2 76 2.6 NNW 11 15 6 8 1018.8 1018.8 0.0
30/07:30am 20.4 20.2 15.7 74 2.8 NW 11 17 6 9 1018.8 1018.8 0.0
30/07:00am 19.8 19.4 16.3 80 2.1 NW 13 15 7 8 1018.5 1018.5 0.0
30/06:30am 20.0 19.8 15.8 77 2.5 WNW 11 13 6 7 1018.1 1018.1 0.0
30/06:00am 20.0 20.1 15.4 75 2.7 NNW 9 13 5 7 1018.3 1018.3 0.0
30/05:30am 19.6 20.3 16.1 80 2.1 W 7 9 4 5 1017.9 1017.9 0.0
30/05:00am 19.1 18.5 16.6 85 1.5 W 15 17 8 9 1018.2 1018.2 0.0
30/04:30am 19.3 19.1 16.6 84 1.6 NW 13 15 7 8 1017.8 1017.8 0.0
30/04:00am 19.4 19.2 16.6 84 1.7 NNW 13 15 7 8 1017.5 1017.5 0.0
30/03:30am 19.8 19.5 16.5 81 2.0 NNW 13 15 7 8 1017.2 1017.2 0.0
30/03:00am 19.3 20.2 16.5 84 1.7 NNE 7 9 4 5 1017.4 1017.4 0.0
30/02:30am 19.2 20.6 16.4 84 1.7 NE 4 9 2 5 1017.5 1017.5 0.0
30/02:00am 19.6 21.7 16.3 81 2.0 CALM 0 2 0 1 1017.8 1017.8 0.0
30/01:30am 19.2 19.3 16.4 84 1.7 W 11 15 6 8 1018.1 1018.1 0.0
30/01:00am 19.4 22.0 17.6 89 1.1 CALM 0 0 0 0 1017.9 1017.9 0.0
30/12:30am 19.2 20.6 16.5 84 1.6 E 4 7 2 4 1018.1 1018.1 0.0
30/12:00am 20.5 22.3 16.5 78 2.4 NNW 2 7 1 4 1018.2 1018.2 0.0
 
Date/Time
EST
Temp
°C
App
Temp
°C
Dew
Point
Rel
Hum
%
Delta-T
°C
Wind Press
QNH
hPa
Press
MSL
hPa
Rain
since 9 am
mm
Dir
 
Spd
km/h
Gust
km/h
Spd
kts
Gust
kts
29/11:30pm 21.3 21.7 16.3 73 3.0 N 9 13 5 7 1018.1 1018.1 0.0
29/11:00pm 20.8 21.3 16.5 76 2.6 WNW 9 15 5 8 1018.6 1018.6 0.0
29/10:30pm 20.3 21.5 17.4 83 1.8 WNW 7 9 4 5 1018.7 1018.7 0.0
29/10:00pm 20.4 21.4 16.4 78 2.4 N 6 9 3 5 1019.1 1019.1 0.0
29/09:30pm 20.6 21.7 17.2 81 2.1 NNE 7 11 4 6 1018.9 1018.9 0.0
29/09:00pm 22.5 22.2 16.4 68 3.7 N 13 17 7 9 1019.1 1019.1 0.0
29/08:30pm 22.9 22.2 16.3 66 4.0 NNE 15 17 8 9 1018.7 1018.7 0.0
29/08:00pm 23.2 22.5 16.5 66 4.1 NNE 15 19 8 10 1018.8 1018.8 0.0
29/07:30pm 23.4 21.8 16.5 65 4.2 NNE 20 26 11 14 1018.6 1018.6 0.0
29/07:00pm 23.4 22.1 16.7 66 4.1 NNE 19 28 10 15 1018.5 1018.5 0.0
29/06:30pm 23.5 22.0 16.8 66 4.1 NNE 20 26 11 14 1018.5 1018.5 0.0
29/06:00pm 23.6 21.9 17.3 67 3.9 NNE 22 26 12 14 1018.4 1018.4 0.0
29/05:30pm 23.2 21.8 16.6 66 4.0 NNE 19 26 10 14 1018.3 1018.3 0.0
29/05:00pm 22.6 21.2 17.9 75 2.9 NE 22 30 12 16 1018.1 1018.1 0.0
29/04:30pm 23.1 21.4 17.1 69 3.7 NE 22 28 12 15 1017.9 1017.9 0.0
29/04:00pm 23.4 21.9 16.7 66 4.1 NE 20 24 11 13 1018.0 1018.0 0.0
29/03:30pm 23.6 21.5 16.2 63 4.5 NE 22 28 12 15 1017.6 1017.6 0.0
29/03:00pm 23.6 21.8 15.6 61 4.8 NE 19 22 10 12 1018.3 1018.3 0.0
29/02:30pm 25.2 24.2 14.6 51 6.3 NE 13 19 7 10 1018.4 1018.4 0.0
29/02:00pm 25.5 24.4 13.1 46 7.2 N 11 13 6 7 1018.4 1018.4 0.0
29/01:30pm 25.8 25.3 13.7 47 7.1 NNE 9 13 5 7 1018.6 1018.6 0.0
29/01:00pm 25.2 24.3 13.8 49 6.7 WNW 11 15 6 8 1019.0 1019.0 0.0
29/12:30pm 25.8 24.6 13.9 47 7.0 NW 13 17 7 9 1019.8 1019.8 0.0
29/12:00pm 24.6 23.3 13.6 50 6.4 NW 13 17 7 9 1020.4 1020.4 0.0
29/11:30am 23.8 22.1 13.5 52 6.0 NW 15 19 8 10 1020.9 1020.9 0.0
29/11:00am 23.5 23.2 14.3 56 5.4 NNW 9 17 5 9 1021.0 1021.0 0.0
29/10:30am 24.1 23.9 14.8 56 5.5 N 9 15 5 8 1021.6 1021.6 0.0
29/10:00am 22.0 21.3 14.3 61 4.5 NW 11 15 6 8 1022.1 1022.1 0.0
29/09:30am 21.1 20.9 14.6 66 3.8 WNW 9 13 5 7 1022.6 1022.6 0.0
29/09:00am 20.1 19.6 14.8 71 3.1 NW 11 13 6 7 1022.8 1022.8 0.0
29/08:30am 19.9 18.9 14.6 71 3.1 NW 13 17 7 9 1022.8 1022.8 0.0
29/08:00am 19.4 18.8 14.6 74 2.8 NW 11 13 6 7 1023.0 1023.0 0.0
29/07:30am 18.0 18.2 14.7 81 1.9 N 7 9 4 5 1022.6 1022.6 0.0
29/07:00am 17.3 16.7 14.5 83 1.6 N 11 13 6 7 1022.2 1022.2 0.0
29/06:30am 16.8 15.7 14.3 85 1.4 NW 13 17 7 9 1022.2 1022.2 0.0
29/06:00am 16.2 15.1 14.3 88 1.1 NW 13 15 7 8 1022.2 1022.2 0.0
29/05:30am 16.7 16.2 14.8 88 1.1 NNW 11 11 6 6 1021.8 1021.8 0.0
29/05:00am 16.6 16.9 14.9 90 1.0 N 7 9 4 5 1021.7 1021.7 0.0
29/04:30am 17.3 17.3 15.2 87 1.2 NW 9 9 5 5 1021.8 1021.8 0.0
29/04:00am 17.0 17.0 15.3 90 1.0 NW 9 11 5 6 1021.6 1021.6 0.0
29/03:30am 17.3 17.7 15.4 88 1.1 NW 7 9 4 5 1021.7 1021.7 0.0
29/03:00am 17.6 18.2 15.9 90 1.0 NNW 7 9 4 5 1021.8 1021.8 0.0
29/02:30am 18.3 19.0 16.1 87 1.3 N 7 9 4 5 1022.0 1022.0 0.0
29/02:00am 18.4 19.8 16.4 88 1.2 NNE 4 6 2 3 1022.1 1022.1 0.0
29/01:30am 17.8 18.1 16.1 90 1.0 NE 9 11 5 6 1022.1 1022.1 0.0
29/01:00am 18.1 18.7 15.9 87 1.3 NE 7 11 4 6 1022.6 1022.6 0.0
29/12:30am 19.0 19.9 16.1 83 1.7 WNW 6 7 3 4 1022.7 1022.7 0.0
29/12:00am 19.5 19.9 16.3 82 1.9 N 9 11 5 6 1022.5 1022.5 0.0
 
Date/Time
EST
Temp
°C
App
Temp
°C
Dew
Point
Rel
Hum
%
Delta-T
°C
Wind Press
QNH
hPa
Press
MSL
hPa
Rain
since 9 am
mm
Dir
 
Spd
km/h
Gust
km/h
Spd
kts
Gust
kts
28/11:30pm 20.0 20.0 16.3 79 2.2 NNW 11 11 6 6 1022.7 1022.7 0.0
28/11:00pm 20.3 20.0 16.5 79 2.3 WNW 13 15 7 8 1022.8 1022.8 0.0
28/10:30pm 20.8 21.1 17.0 79 2.3 NNW 11 13 6 7 1022.9 1022.9 0.0
28/10:00pm 21.8 20.9 17.7 77 2.5 N 19 24 10 13 1022.9 1022.9 0.0

Other Formats:

Comma delimited format used in spreadsheet applications
http://www.bom.gov.au/fwo/IDN60801/IDN60801.94767.axf

JavaScript Object Notation format (JSON) in row-major order
http://www.bom.gov.au/fwo/IDN60801/IDN60801.94767.json